Absecon, New Jersey
Current Conditions -  °F | °C
As of 6:54 PM on Monday 22 Dec 2014 (Local Time) from KACY Reporting Station
Overcast Overcast  
Wind Chill: 38°   Ceiling: 7000
Heat Index: 42°   Visibility: 10mi
Dew Point: 39°   Wind: 6mph
Humidity: 89%   Direction: 40°NE
Pressure: 30.16"   Gusts: NA
Location:  39.43°N, 74.51°W
Report Text: KACY 222354Z 04005KT 10SM FEW021 OVC070 06/04 A3016 RMK AO2 RAB17E28 SLP215 P0000 60000 T00560039 10072 20056 55007
Loading
Personal Weather Stations






























Interactive Weather Map New forecast layout! Learn more

10-Day Weather Forecast

Advertisements
Track Severe Weather on mobile